Language selection

My Weather Profile Weather Topics  | 

Ungava - eastern half: Past 24 Hour Conditions

 

Makkovik Airport

03:00 PM ADT 13 May 2021
Disclaimer

This table is a summary of hourly weather conditions for the past 24 hours.
Please note that these observations might not always be representative of weather conditions over their associated marine area.

Date / Time
(ADT)
Wind(knots) Conditions Visibility(km) Pressure(kPa) Air tempC) Relative humidity(%) Dew pointC) Wind Chill
13 May 2021
15:00 NNW 9 gust 18 Light Rain and Drizzle 2 101.1 1 99 1 *
14:00 NNW 15 gust 22 Light Rain and Drizzle 1 101.1 1 98 1 *
13:00 NNW 13 gust 20 Light Rain and Drizzle 1 101.0 1 98 1 *
12:00 NNW 11 Light Rain and Drizzle 1 101.0 1 98 1 *
11:00 NW 12 gust 19 Light Rain and Drizzle 2 101.0 1 98 1 *
10:00 NNW 10 gust 19 Light Rain and Drizzle 2 101.0 1 98 1 *
9:00 NNW 8 gust 18 Light Drizzle 2 101.0 1 98 0 *
8:00 NNW 12 gust 22 Light Drizzle 2 101.0 0 98 0 *
7:00 NNW 10 gust 17 Light Snow 2 101.0 0 98 0 *
6:00 NW 16 gust 22 Light Snow 2 101.0 0 97 0 *
5:00 NW 15 gust 23 N/A N/A 101.0 0 97 0 -6
4:00 NW 16 gust 22 N/A N/A 101.0 0 97 0 -6
3:00 NW 18 gust 25 N/A N/A 101.1 0 97 0 *
2:00 NW 15 gust 22 N/A N/A 101.1 0 97 0 *
1:00 NW 11 gust 18 N/A N/A 101.2 0 96 -1 -5
0:00 NW 11 gust 17 N/A N/A 101.3 0 95 -1 *
12 May 2021
23:00 NW 13 N/A N/A 101.3 0 95 -1 *
22:00 NNW 12 gust 22 N/A N/A 101.4 1 93 0 *
21:00 NNW 12 gust 18 N/A N/A 101.4 1 93 -1 *
20:00 NNW 13 N/A N/A 101.5 1 90 -1 *
19:00 NNW 12 gust 17 N/A N/A 101.5 1 86 -1 *
18:00 NNW 12 N/A N/A 101.5 1 83 -1 *
17:00 NNW 12 gust 18 Mostly Cloudy 24 101.5 3 76 -1 *
16:00 NNW 10 gust 16 Mostly Cloudy 24 101.5 3 77 -1 *
15:00 NNW 10 gust 17 Mostly Cloudy 24 101.5 3 73 -1 *

Zoom-in to make a selection

Map of Atlantic - Labrador marine weather areas Kangiqsualujjuaq Airport Cape Kakkiviak Cape Kiglapait Cartwright Airport CFB Goose Bay Hopedale Mary's Harbour Nain Airport Makkovik Airport Saglek Tukialik Bay
Legend:
buoy Buoy
land station Land Station

Atlantic - Labrador Area

Another Region

What we are doing

Date modified: